sensor_id;sensor_type;location;lat;lon;timestamp;P1;durP1;ratioP1;P2;durP2;ratioP2
43620;SDS011;29213;50.770;7.298;2022-12-28T00:01:32;13.60;;;8.25;;
43620;SDS011;29213;50.770;7.298;2022-12-28T00:04:04;14.90;;;7.90;;
43620;SDS011;29213;50.770;7.298;2022-12-28T00:06:31;12.57;;;7.13;;
43620;SDS011;29213;50.770;7.298;2022-12-28T00:08:58;10.43;;;6.50;;
43620;SDS011;29213;50.770;7.298;2022-12-28T00:11:24;11.68;;;6.32;;
43620;SDS011;29213;50.770;7.298;2022-12-28T00:13:51;12.95;;;7.00;;
43620;SDS011;29213;50.770;7.298;2022-12-28T00:18:49;11.60;;;5.72;;
43620;SDS011;29213;50.770;7.298;2022-12-28T00:21:14;12.43;;;5.75;;
43620;SDS011;29213;50.770;7.298;2022-12-28T00:23:39;9.73;;;5.32;;
43620;SDS011;29213;50.770;7.298;2022-12-28T00:26:09;9.00;;;5.13;;
43620;SDS011;29213;50.770;7.298;2022-12-28T00:28:36;8.05;;;5.25;;
43620;SDS011;29213;50.770;7.298;2022-12-28T00:31:01;9.20;;;5.22;;
43620;SDS011;29213;50.770;7.298;2022-12-28T00:33:28;9.43;;;4.55;;
43620;SDS011;29213;50.770;7.298;2022-12-28T00:35:54;8.32;;;5.18;;
43620;SDS011;29213;50.770;7.298;2022-12-28T00:38:21;7.60;;;4.22;;
43620;SDS011;29213;50.770;7.298;2022-12-28T00:40:47;9.10;;;4.63;;
43620;SDS011;29213;50.770;7.298;2022-12-28T00:43:13;7.32;;;3.80;;
43620;SDS011;29213;50.770;7.298;2022-12-28T00:45:38;7.68;;;4.07;;
43620;SDS011;29213;50.770;7.298;2022-12-28T00:48:04;8.20;;;4.10;;
43620;SDS011;29213;50.770;7.298;2022-12-28T00:50:30;6.82;;;3.75;;
43620;SDS011;29213;50.770;7.298;2022-12-28T00:52:55;5.80;;;3.63;;
43620;SDS011;29213;50.770;7.298;2022-12-28T00:55:20;6.47;;;3.80;;
43620;SDS011;29213;50.770;7.298;2022-12-28T00:57:46;6.80;;;3.70;;
43620;SDS011;29213;50.770;7.298;2022-12-28T01:00:12;8.32;;;3.75;;
43620;SDS011;29213;50.770;7.298;2022-12-28T01:02:38;6.60;;;3.30;;
43620;SDS011;29213;50.770;7.298;2022-12-28T01:05:03;6.30;;;3.30;;
43620;SDS011;29213;50.770;7.298;2022-12-28T01:07:29;6.38;;;2.85;;
43620;SDS011;29213;50.770;7.298;2022-12-28T01:09:54;5.90;;;2.92;;
43620;SDS011;29213;50.770;7.298;2022-12-28T01:12:20;5.38;;;2.80;;
43620;SDS011;29213;50.770;7.298;2022-12-28T01:14:45;6.28;;;2.85;;
43620;SDS011;29213;50.770;7.298;2022-12-28T01:17:10;6.07;;;2.70;;
43620;SDS011;29213;50.770;7.298;2022-12-28T01:19:36;5.03;;;2.90;;
43620;SDS011;29213;50.770;7.298;2022-12-28T01:22:01;6.07;;;3.03;;
43620;SDS011;29213;50.770;7.298;2022-12-28T01:24:26;5.00;;;2.65;;
43620;SDS011;29213;50.770;7.298;2022-12-28T01:26:52;7.43;;;2.80;;
43620;SDS011;29213;50.770;7.298;2022-12-28T01:29:17;5.13;;;2.58;;
43620;SDS011;29213;50.770;7.298;2022-12-28T01:31:43;7.22;;;2.58;;
43620;SDS011;29213;50.770;7.298;2022-12-28T01:34:08;6.05;;;2.10;;
43620;SDS011;29213;50.770;7.298;2022-12-28T01:36:33;4.68;;;2.00;;
43620;SDS011;29213;50.770;7.298;2022-12-28T01:39:00;5.85;;;2.60;;
43620;SDS011;29213;50.770;7.298;2022-12-28T01:41:28;6.32;;;2.30;;
43620;SDS011;29213;50.770;7.298;2022-12-28T01:54:50;4.45;;;2.33;;
43620;SDS011;29213;50.770;7.298;2022-12-28T01:57:18;6.25;;;2.40;;
43620;SDS011;29213;50.770;7.298;2022-12-28T01:59:52;6.45;;;2.60;;
43620;SDS011;29213;50.770;7.298;2022-12-28T02:02:22;5.78;;;2.35;;
43620;SDS011;29213;50.770;7.298;2022-12-28T02:04:48;5.22;;;2.38;;
43620;SDS011;29213;50.770;7.298;2022-12-28T02:07:15;6.07;;;2.40;;
43620;SDS011;29213;50.770;7.298;2022-12-28T02:10:03;4.57;;;2.10;;
43620;SDS011;29213;50.770;7.298;2022-12-28T02:12:29;5.00;;;2.50;;
43620;SDS011;29213;50.770;7.298;2022-12-28T02:14:56;8.05;;;2.78;;
43620;SDS011;29213;50.770;7.298;2022-12-28T02:17:21;6.35;;;2.70;;
43620;SDS011;29213;50.770;7.298;2022-12-28T02:19:47;5.85;;;2.38;;
43620;SDS011;29213;50.770;7.298;2022-12-28T02:27:53;6.47;;;2.33;;
43620;SDS011;29213;50.770;7.298;2022-12-28T02:30:54;7.25;;;2.65;;
43620;SDS011;29213;50.770;7.298;2022-12-28T02:33:31;6.40;;;2.60;;
43620;SDS011;29213;50.770;7.298;2022-12-28T02:36:04;5.43;;;2.65;;
43620;SDS011;29213;50.770;7.298;2022-12-28T02:38:33;4.68;;;2.30;;
43620;SDS011;29213;50.770;7.298;2022-12-28T02:41:18;7.85;;;2.88;;
43620;SDS011;29213;50.770;7.298;2022-12-28T02:43:46;7.10;;;2.83;;
43620;SDS011;29213;50.770;7.298;2022-12-28T02:46:19;6.75;;;2.38;;
43620;SDS011;29213;50.770;7.298;2022-12-28T02:49:15;7.03;;;2.90;;
43620;SDS011;29213;50.770;7.298;2022-12-28T03:04:17;6.78;;;2.40;;
43620;SDS011;29213;50.770;7.298;2022-12-28T03:07:11;4.97;;;2.50;;
43620;SDS011;29213;50.770;7.298;2022-12-28T03:15:28;6.63;;;2.35;;
43620;SDS011;29213;50.770;7.298;2022-12-28T03:18:00;4.88;;;2.30;;
43620;SDS011;29213;50.770;7.298;2022-12-28T03:20:56;5.10;;;2.28;;
43620;SDS011;29213;50.770;7.298;2022-12-28T03:23:45;4.43;;;2.30;;
43620;SDS011;29213;50.770;7.298;2022-12-28T03:26:31;6.18;;;2.28;;
43620;SDS011;29213;50.770;7.298;2022-12-28T03:29:18;3.95;;;2.20;;
43620;SDS011;29213;50.770;7.298;2022-12-28T03:32:05;5.47;;;2.28;;
43620;SDS011;29213;50.770;7.298;2022-12-28T03:34:31;4.15;;;2.10;;
43620;SDS011;29213;50.770;7.298;2022-12-28T03:37:09;7.13;;;2.33;;
43620;SDS011;29213;50.770;7.298;2022-12-28T03:39:44;3.85;;;1.80;;
43620;SDS011;29213;50.770;7.298;2022-12-28T03:42:17;5.43;;;1.80;;
43620;SDS011;29213;50.770;7.298;2022-12-28T03:45:55;4.43;;;1.70;;
43620;SDS011;29213;50.770;7.298;2022-12-28T03:47:59;3.03;;;1.67;;
43620;SDS011;29213;50.770;7.298;2022-12-28T03:50:26;4.25;;;1.70;;
43620;SDS011;29213;50.770;7.298;2022-12-28T03:52:53;4.13;;;1.80;;
43620;SDS011;29213;50.770;7.298;2022-12-28T03:55:18;5.32;;;2.05;;
43620;SDS011;29213;50.770;7.298;2022-12-28T03:57:44;2.75;;;1.52;;
43620;SDS011;29213;50.770;7.298;2022-12-28T04:00:09;4.18;;;1.67;;
43620;SDS011;29213;50.770;7.298;2022-12-28T04:02:35;3.13;;;1.70;;
43620;SDS011;29213;50.770;7.298;2022-12-28T04:05:01;4.07;;;1.70;;
43620;SDS011;29213;50.770;7.298;2022-12-28T04:07:27;4.65;;;1.98;;
43620;SDS011;29213;50.770;7.298;2022-12-28T04:09:53;4.43;;;1.90;;
43620;SDS011;29213;50.770;7.298;2022-12-28T04:12:18;4.15;;;1.85;;
43620;SDS011;29213;50.770;7.298;2022-12-28T04:14:44;4.72;;;1.70;;
43620;SDS011;29213;50.770;7.298;2022-12-28T04:17:09;3.42;;;1.70;;
43620;SDS011;29213;50.770;7.298;2022-12-28T04:19:34;3.75;;;1.92;;
43620;SDS011;29213;50.770;7.298;2022-12-28T04:22:00;4.03;;;2.03;;
43620;SDS011;29213;50.770;7.298;2022-12-28T04:24:25;4.00;;;1.80;;
43620;SDS011;29213;50.770;7.298;2022-12-28T04:26:51;4.22;;;1.98;;
43620;SDS011;29213;50.770;7.298;2022-12-28T04:29:16;4.90;;;2.00;;
43620;SDS011;29213;50.770;7.298;2022-12-28T04:31:41;4.35;;;1.90;;
43620;SDS011;29213;50.770;7.298;2022-12-28T04:34:07;5.50;;;1.80;;
43620;SDS011;29213;50.770;7.298;2022-12-28T04:36:32;4.10;;;1.65;;
43620;SDS011;29213;50.770;7.298;2022-12-28T04:38:58;3.35;;;1.70;;
43620;SDS011;29213;50.770;7.298;2022-12-28T04:41:24;3.25;;;1.75;;
43620;SDS011;29213;50.770;7.298;2022-12-28T04:43:50;4.45;;;1.73;;
43620;SDS011;29213;50.770;7.298;2022-12-28T04:46:17;4.00;;;1.60;;
43620;SDS011;29213;50.770;7.298;2022-12-28T04:48:43;5.55;;;1.75;;
43620;SDS011;29213;50.770;7.298;2022-12-28T04:51:29;4.22;;;1.90;;
43620;SDS011;29213;50.770;7.298;2022-12-28T04:53:54;3.72;;;1.80;;
43620;SDS011;29213;50.770;7.298;2022-12-28T04:56:21;4.13;;;1.70;;
43620;SDS011;29213;50.770;7.298;2022-12-28T04:58:51;3.95;;;1.40;;
43620;SDS011;29213;50.770;7.298;2022-12-28T05:01:21;3.20;;;1.60;;
43620;SDS011;29213;50.770;7.298;2022-12-28T05:03:47;4.10;;;1.90;;
43620;SDS011;29213;50.770;7.298;2022-12-28T05:06:14;3.83;;;1.60;;
43620;SDS011;29213;50.770;7.298;2022-12-28T05:08:41;4.22;;;1.65;;
43620;SDS011;29213;50.770;7.298;2022-12-28T05:11:10;4.38;;;1.50;;
43620;SDS011;29213;50.770;7.298;2022-12-28T05:13:37;3.65;;;1.50;;
43620;SDS011;29213;50.770;7.298;2022-12-28T05:16:04;3.33;;;1.48;;
43620;SDS011;29213;50.770;7.298;2022-12-28T05:18:31;3.33;;;1.45;;
43620;SDS011;29213;50.770;7.298;2022-12-28T05:21:00;3.22;;;1.30;;
43620;SDS011;29213;50.770;7.298;2022-12-28T05:23:28;2.95;;;1.10;;
43620;SDS011;29213;50.770;7.298;2022-12-28T05:25:54;2.63;;;1.25;;
43620;SDS011;29213;50.770;7.298;2022-12-28T05:28:20;3.05;;;1.30;;
43620;SDS011;29213;50.770;7.298;2022-12-28T05:30:45;3.67;;;1.30;;
43620;SDS011;29213;50.770;7.298;2022-12-28T05:33:11;2.13;;;0.98;;
43620;SDS011;29213;50.770;7.298;2022-12-28T05:35:36;2.85;;;1.10;;
43620;SDS011;29213;50.770;7.298;2022-12-28T05:38:02;3.67;;;1.33;;
43620;SDS011;29213;50.770;7.298;2022-12-28T05:40:27;2.28;;;1.00;;
43620;SDS011;29213;50.770;7.298;2022-12-28T05:42:53;1.60;;;0.95;;
43620;SDS011;29213;50.770;7.298;2022-12-28T05:45:19;2.65;;;0.98;;
43620;SDS011;29213;50.770;7.298;2022-12-28T05:47:44;1.75;;;0.90;;
43620;SDS011;29213;50.770;7.298;2022-12-28T05:50:10;2.28;;;0.93;;
43620;SDS011;29213;50.770;7.298;2022-12-28T05:52:35;3.17;;;1.10;;
43620;SDS011;29213;50.770;7.298;2022-12-28T05:55:01;2.45;;;0.95;;
43620;SDS011;29213;50.770;7.298;2022-12-28T05:57:26;2.97;;;1.00;;
43620;SDS011;29213;50.770;7.298;2022-12-28T05:59:52;2.63;;;1.08;;
43620;SDS011;29213;50.770;7.298;2022-12-28T06:02:17;3.30;;;1.10;;
43620;SDS011;29213;50.770;7.298;2022-12-28T06:04:42;3.40;;;1.00;;
43620;SDS011;29213;50.770;7.298;2022-12-28T06:07:08;3.22;;;0.93;;
43620;SDS011;29213;50.770;7.298;2022-12-28T06:09:33;2.38;;;1.10;;
43620;SDS011;29213;50.770;7.298;2022-12-28T06:11:59;2.20;;;1.05;;
43620;SDS011;29213;50.770;7.298;2022-12-28T06:14:24;3.33;;;1.00;;
43620;SDS011;29213;50.770;7.298;2022-12-28T06:16:49;3.08;;;1.23;;
43620;SDS011;29213;50.770;7.298;2022-12-28T06:19:15;2.92;;;1.08;;
43620;SDS011;29213;50.770;7.298;2022-12-28T06:21:42;2.33;;;0.90;;
43620;SDS011;29213;50.770;7.298;2022-12-28T06:24:08;2.60;;;1.08;;
43620;SDS011;29213;50.770;7.298;2022-12-28T06:26:35;1.75;;;0.95;;
43620;SDS011;29213;50.770;7.298;2022-12-28T06:29:02;2.10;;;1.00;;
43620;SDS011;29213;50.770;7.298;2022-12-28T06:31:29;3.70;;;1.95;;
43620;SDS011;29213;50.770;7.298;2022-12-28T06:33:56;3.53;;;1.20;;
43620;SDS011;29213;50.770;7.298;2022-12-28T06:36:24;1.75;;;1.00;;
43620;SDS011;29213;50.770;7.298;2022-12-28T06:38:52;2.10;;;0.85;;
43620;SDS011;29213;50.770;7.298;2022-12-28T06:41:19;1.90;;;1.02;;
43620;SDS011;29213;50.770;7.298;2022-12-28T06:43:46;2.75;;;1.00;;
43620;SDS011;29213;50.770;7.298;2022-12-28T06:46:12;2.72;;;0.90;;
43620;SDS011;29213;50.770;7.298;2022-12-28T06:48:39;2.20;;;0.90;;
43620;SDS011;29213;50.770;7.298;2022-12-28T06:51:06;2.40;;;0.90;;
43620;SDS011;29213;50.770;7.298;2022-12-28T06:53:38;2.55;;;0.90;;
43620;SDS011;29213;50.770;7.298;2022-12-28T06:56:09;2.30;;;0.90;;
43620;SDS011;29213;50.770;7.298;2022-12-28T06:58:37;2.10;;;0.90;;
43620;SDS011;29213;50.770;7.298;2022-12-28T07:03:42;2.47;;;0.90;;
43620;SDS011;29213;50.770;7.298;2022-12-28T07:06:08;1.25;;;0.77;;
43620;SDS011;29213;50.770;7.298;2022-12-28T07:08:35;2.15;;;1.02;;
43620;SDS011;29213;50.770;7.298;2022-12-28T07:11:01;1.63;;;0.80;;
43620;SDS011;29213;50.770;7.298;2022-12-28T07:13:28;2.10;;;1.00;;
43620;SDS011;29213;50.770;7.298;2022-12-28T07:15:53;2.80;;;0.88;;
43620;SDS011;29213;50.770;7.298;2022-12-28T07:18:19;2.03;;;0.80;;
43620;SDS011;29213;50.770;7.298;2022-12-28T07:20:44;2.50;;;1.00;;
43620;SDS011;29213;50.770;7.298;2022-12-28T07:23:10;2.53;;;0.88;;
43620;SDS011;29213;50.770;7.298;2022-12-28T07:25:35;2.20;;;1.10;;
43620;SDS011;29213;50.770;7.298;2022-12-28T07:28:00;2.67;;;1.00;;
43620;SDS011;29213;50.770;7.298;2022-12-28T07:30:26;2.05;;;0.95;;
43620;SDS011;29213;50.770;7.298;2022-12-28T07:32:52;2.58;;;1.00;;
43620;SDS011;29213;50.770;7.298;2022-12-28T07:35:17;2.13;;;1.10;;
43620;SDS011;29213;50.770;7.298;2022-12-28T07:37:42;3.30;;;1.10;;
43620;SDS011;29213;50.770;7.298;2022-12-28T07:40:08;2.75;;;1.05;;
43620;SDS011;29213;50.770;7.298;2022-12-28T07:42:34;2.50;;;1.00;;
43620;SDS011;29213;50.770;7.298;2022-12-28T07:44:59;1.92;;;0.90;;
43620;SDS011;29213;50.770;7.298;2022-12-28T07:47:25;2.22;;;1.10;;
43620;SDS011;29213;50.770;7.298;2022-12-28T07:49:50;2.47;;;0.95;;
43620;SDS011;29213;50.770;7.298;2022-12-28T07:52:15;1.88;;;0.90;;
43620;SDS011;29213;50.770;7.298;2022-12-28T07:54:41;2.60;;;1.13;;
43620;SDS011;29213;50.770;7.298;2022-12-28T07:57:06;3.05;;;1.05;;
43620;SDS011;29213;50.770;7.298;2022-12-28T07:59:32;2.45;;;1.00;;
43620;SDS011;29213;50.770;7.298;2022-12-28T08:01:57;2.13;;;1.00;;
43620;SDS011;29213;50.770;7.298;2022-12-28T08:04:23;2.70;;;1.05;;
43620;SDS011;29213;50.770;7.298;2022-12-28T08:06:48;2.78;;;1.00;;
43620;SDS011;29213;50.770;7.298;2022-12-28T08:09:14;1.85;;;0.90;;
43620;SDS011;29213;50.770;7.298;2022-12-28T08:11:41;2.78;;;0.98;;
43620;SDS011;29213;50.770;7.298;2022-12-28T08:14:08;3.05;;;1.10;;
43620;SDS011;29213;50.770;7.298;2022-12-28T08:16:35;2.25;;;1.10;;
43620;SDS011;29213;50.770;7.298;2022-12-28T08:19:03;2.72;;;0.95;;
43620;SDS011;29213;50.770;7.298;2022-12-28T08:21:32;2.45;;;1.05;;
43620;SDS011;29213;50.770;7.298;2022-12-28T08:24:00;2.22;;;0.95;;
43620;SDS011;29213;50.770;7.298;2022-12-28T08:26:27;2.85;;;1.10;;
43620;SDS011;29213;50.770;7.298;2022-12-28T08:28:55;3.88;;;1.20;;
43620;SDS011;29213;50.770;7.298;2022-12-28T08:31:24;3.08;;;1.10;;
43620;SDS011;29213;50.770;7.298;2022-12-28T08:33:52;3.08;;;0.95;;
43620;SDS011;29213;50.770;7.298;2022-12-28T08:36:19;4.68;;;1.23;;
43620;SDS011;29213;50.770;7.298;2022-12-28T08:38:45;3.97;;;1.20;;
43620;SDS011;29213;50.770;7.298;2022-12-28T08:41:11;2.63;;;1.13;;
43620;SDS011;29213;50.770;7.298;2022-12-28T08:43:38;3.15;;;0.95;;
43620;SDS011;29213;50.770;7.298;2022-12-28T08:46:04;3.20;;;1.15;;
43620;SDS011;29213;50.770;7.298;2022-12-28T08:48:35;2.97;;;1.20;;
43620;SDS011;29213;50.770;7.298;2022-12-28T08:51:01;4.65;;;1.40;;
43620;SDS011;29213;50.770;7.298;2022-12-28T08:53:33;3.60;;;1.20;;
43620;SDS011;29213;50.770;7.298;2022-12-28T08:56:06;2.30;;;1.02;;
43620;SDS011;29213;50.770;7.298;2022-12-28T08:58:34;2.85;;;1.20;;
43620;SDS011;29213;50.770;7.298;2022-12-28T09:01:10;3.25;;;1.10;;
43620;SDS011;29213;50.770;7.298;2022-12-28T09:03:46;2.72;;;1.10;;
43620;SDS011;29213;50.770;7.298;2022-12-28T09:06:15;3.08;;;1.13;;
43620;SDS011;29213;50.770;7.298;2022-12-28T09:08:54;3.17;;;1.17;;
43620;SDS011;29213;50.770;7.298;2022-12-28T09:11:20;2.80;;;1.10;;
43620;SDS011;29213;50.770;7.298;2022-12-28T09:13:46;3.00;;;1.20;;
43620;SDS011;29213;50.770;7.298;2022-12-28T09:16:14;3.08;;;1.30;;
43620;SDS011;29213;50.770;7.298;2022-12-28T09:18:41;3.72;;;1.23;;
43620;SDS011;29213;50.770;7.298;2022-12-28T09:21:12;3.08;;;1.20;;
43620;SDS011;29213;50.770;7.298;2022-12-28T09:23:39;4.60;;;1.58;;
43620;SDS011;29213;50.770;7.298;2022-12-28T09:26:06;3.92;;;1.38;;
43620;SDS011;29213;50.770;7.298;2022-12-28T09:28:33;3.67;;;1.27;;
43620;SDS011;29213;50.770;7.298;2022-12-28T09:31:00;3.78;;;1.40;;
43620;SDS011;29213;50.770;7.298;2022-12-28T09:33:27;4.77;;;1.20;;
43620;SDS011;29213;50.770;7.298;2022-12-28T09:36:11;3.60;;;1.23;;
43620;SDS011;29213;50.770;7.298;2022-12-28T09:38:37;9.13;;;1.38;;
43620;SDS011;29213;50.770;7.298;2022-12-28T09:41:08;4.05;;;1.30;;
43620;SDS011;29213;50.770;7.298;2022-12-28T09:43:37;3.13;;;1.15;;
43620;SDS011;29213;50.770;7.298;2022-12-28T09:46:05;2.75;;;1.10;;
43620;SDS011;29213;50.770;7.298;2022-12-28T09:48:30;5.47;;;1.40;;
43620;SDS011;29213;50.770;7.298;2022-12-28T09:50:56;3.00;;;1.40;;
43620;SDS011;29213;50.770;7.298;2022-12-28T09:53:24;3.70;;;1.30;;
43620;SDS011;29213;50.770;7.298;2022-12-28T09:58:45;4.53;;;1.50;;
43620;SDS011;29213;50.770;7.298;2022-12-28T10:01:11;3.38;;;1.20;;
43620;SDS011;29213;50.770;7.298;2022-12-28T10:03:40;4.38;;;1.50;;
43620;SDS011;29213;50.770;7.298;2022-12-28T10:06:12;3.28;;;1.33;;
43620;SDS011;29213;50.770;7.298;2022-12-28T10:08:48;2.63;;;1.13;;
43620;SDS011;29213;50.770;7.298;2022-12-28T10:11:17;4.18;;;1.30;;
43620;SDS011;29213;50.770;7.298;2022-12-28T10:13:45;3.33;;;1.30;;
43620;SDS011;29213;50.770;7.298;2022-12-28T10:16:19;4.50;;;1.50;;
43620;SDS011;29213;50.770;7.298;2022-12-28T10:18:45;4.07;;;1.50;;
43620;SDS011;29213;50.770;7.298;2022-12-28T10:21:12;2.30;;;1.05;;
43620;SDS011;29213;50.770;7.298;2022-12-28T10:23:39;2.80;;;1.15;;
43620;SDS011;29213;50.770;7.298;2022-12-28T10:26:08;3.75;;;1.20;;
43620;SDS011;29213;50.770;7.298;2022-12-28T10:28:45;3.47;;;1.42;;
43620;SDS011;29213;50.770;7.298;2022-12-28T10:31:12;3.33;;;1.40;;
43620;SDS011;29213;50.770;7.298;2022-12-28T10:33:39;3.65;;;1.30;;
43620;SDS011;29213;50.770;7.298;2022-12-28T10:36:10;4.10;;;1.38;;
43620;SDS011;29213;50.770;7.298;2022-12-28T10:38:38;3.97;;;1.50;;
43620;SDS011;29213;50.770;7.298;2022-12-28T10:41:08;3.30;;;1.30;;
43620;SDS011;29213;50.770;7.298;2022-12-28T10:43:38;3.83;;;1.42;;
43620;SDS011;29213;50.770;7.298;2022-12-28T10:46:05;4.65;;;1.40;;
43620;SDS011;29213;50.770;7.298;2022-12-28T10:48:38;3.38;;;1.35;;
43620;SDS011;29213;50.770;7.298;2022-12-28T10:51:13;3.67;;;1.27;;
43620;SDS011;29213;50.770;7.298;2022-12-28T10:53:49;6.50;;;1.30;;
43620;SDS011;29213;50.770;7.298;2022-12-28T10:56:23;4.25;;;1.40;;
43620;SDS011;29213;50.770;7.298;2022-12-28T11:01:34;4.50;;;1.50;;
43620;SDS011;29213;50.770;7.298;2022-12-28T11:09:33;4.47;;;1.45;;
43620;SDS011;29213;50.770;7.298;2022-12-28T11:14:48;2.90;;;1.20;;
43620;SDS011;29213;50.770;7.298;2022-12-28T11:17:16;4.22;;;1.40;;
43620;SDS011;29213;50.770;7.298;2022-12-28T11:19:43;3.92;;;1.58;;
43620;SDS011;29213;50.770;7.298;2022-12-28T11:22:12;3.38;;;1.30;;
43620;SDS011;29213;50.770;7.298;2022-12-28T11:24:43;2.95;;;1.23;;
43620;SDS011;29213;50.770;7.298;2022-12-28T11:27:12;3.30;;;1.23;;
43620;SDS011;29213;50.770;7.298;2022-12-28T11:29:53;4.50;;;1.63;;
43620;SDS011;29213;50.770;7.298;2022-12-28T11:32:29;4.70;;;1.50;;
43620;SDS011;29213;50.770;7.298;2022-12-28T11:35:14;3.72;;;1.40;;
43620;SDS011;29213;50.770;7.298;2022-12-28T11:37:55;3.90;;;1.50;;
43620;SDS011;29213;50.770;7.298;2022-12-28T11:40:47;4.18;;;1.30;;
43620;SDS011;29213;50.770;7.298;2022-12-28T11:49:00;4.00;;;1.50;;
43620;SDS011;29213;50.770;7.298;2022-12-28T11:51:37;3.55;;;1.30;;
43620;SDS011;29213;50.770;7.298;2022-12-28T11:56:58;4.05;;;1.60;;
43620;SDS011;29213;50.770;7.298;2022-12-28T12:04:51;2.92;;;1.30;;
43620;SDS011;29213;50.770;7.298;2022-12-28T12:07:21;3.75;;;1.38;;
43620;SDS011;29213;50.770;7.298;2022-12-28T12:12:55;3.42;;;1.25;;
43620;SDS011;29213;50.770;7.298;2022-12-28T12:15:33;4.20;;;1.70;;
43620;SDS011;29213;50.770;7.298;2022-12-28T12:18:05;4.07;;;1.38;;
43620;SDS011;29213;50.770;7.298;2022-12-28T12:23:41;2.58;;;1.10;;
43620;SDS011;29213;50.770;7.298;2022-12-28T12:32:30;3.28;;;1.20;;
43620;SDS011;29213;50.770;7.298;2022-12-28T12:35:25;2.42;;;1.08;;
43620;SDS011;29213;50.770;7.298;2022-12-28T12:44:16;4.00;;;1.33;;
43620;SDS011;29213;50.770;7.298;2022-12-28T13:01:08;2.83;;;1.25;;
43620;SDS011;29213;50.770;7.298;2022-12-28T13:06:01;6.38;;;1.50;;
43620;SDS011;29213;50.770;7.298;2022-12-28T13:08:44;2.88;;;1.15;;
43620;SDS011;29213;50.770;7.298;2022-12-28T13:11:13;5.63;;;2.63;;
43620;SDS011;29213;50.770;7.298;2022-12-28T13:13:41;3.25;;;1.30;;
43620;SDS011;29213;50.770;7.298;2022-12-28T13:16:10;3.58;;;1.40;;
43620;SDS011;29213;50.770;7.298;2022-12-28T13:21:22;3.03;;;1.20;;
43620;SDS011;29213;50.770;7.298;2022-12-28T13:23:59;5.07;;;1.40;;
43620;SDS011;29213;50.770;7.298;2022-12-28T13:26:26;3.35;;;1.30;;
43620;SDS011;29213;50.770;7.298;2022-12-28T13:29:07;3.20;;;1.65;;
43620;SDS011;29213;50.770;7.298;2022-12-28T13:31:38;5.32;;;1.80;;
43620;SDS011;29213;50.770;7.298;2022-12-28T13:36:56;2.78;;;1.30;;
43620;SDS011;29213;50.770;7.298;2022-12-28T13:39:24;3.55;;;1.10;;
43620;SDS011;29213;50.770;7.298;2022-12-28T13:41:59;4.85;;;1.58;;
43620;SDS011;29213;50.770;7.298;2022-12-28T13:44:38;5.55;;;1.40;;
43620;SDS011;29213;50.770;7.298;2022-12-28T13:47:05;3.60;;;1.13;;
43620;SDS011;29213;50.770;7.298;2022-12-28T13:52:36;3.42;;;1.20;;
43620;SDS011;29213;50.770;7.298;2022-12-28T13:55:15;5.25;;;1.55;;
43620;SDS011;29213;50.770;7.298;2022-12-28T13:57:44;3.60;;;1.30;;
43620;SDS011;29213;50.770;7.298;2022-12-28T14:00:15;4.93;;;1.60;;
43620;SDS011;29213;50.770;7.298;2022-12-28T14:02:42;4.13;;;1.50;;
43620;SDS011;29213;50.770;7.298;2022-12-28T14:05:13;4.82;;;1.75;;
43620;SDS011;29213;50.770;7.298;2022-12-28T14:07:41;12.73;;;5.32;;
43620;SDS011;29213;50.770;7.298;2022-12-28T14:10:06;4.60;;;1.98;;
43620;SDS011;29213;50.770;7.298;2022-12-28T14:12:34;3.42;;;1.42;;
43620;SDS011;29213;50.770;7.298;2022-12-28T14:15:00;3.72;;;1.45;;
43620;SDS011;29213;50.770;7.298;2022-12-28T14:17:27;3.28;;;1.63;;
43620;SDS011;29213;50.770;7.298;2022-12-28T14:19:53;3.53;;;1.42;;
43620;SDS011;29213;50.770;7.298;2022-12-28T14:22:23;3.80;;;1.23;;
43620;SDS011;29213;50.770;7.298;2022-12-28T14:28:48;5.25;;;1.77;;
43620;SDS011;29213;50.770;7.298;2022-12-28T14:30:52;6.30;;;1.80;;
43620;SDS011;29213;50.770;7.298;2022-12-28T14:33:19;2.85;;;1.30;;
43620;SDS011;29213;50.770;7.298;2022-12-28T14:35:55;2.58;;;1.15;;
43620;SDS011;29213;50.770;7.298;2022-12-28T14:38:24;4.28;;;1.70;;
43620;SDS011;29213;50.770;7.298;2022-12-28T14:40:57;5.32;;;1.40;;
43620;SDS011;29213;50.770;7.298;2022-12-28T14:43:25;3.40;;;1.45;;
43620;SDS011;29213;50.770;7.298;2022-12-28T14:45:53;3.22;;;1.40;;
43620;SDS011;29213;50.770;7.298;2022-12-28T14:48:24;3.03;;;1.33;;
43620;SDS011;29213;50.770;7.298;2022-12-28T14:50:58;3.25;;;1.60;;
43620;SDS011;29213;50.770;7.298;2022-12-28T14:53:25;3.38;;;1.40;;
43620;SDS011;29213;50.770;7.298;2022-12-28T14:55:55;4.38;;;1.70;;
43620;SDS011;29213;50.770;7.298;2022-12-28T14:58:26;2.78;;;1.30;;
43620;SDS011;29213;50.770;7.298;2022-12-28T15:00:57;4.50;;;1.60;;
43620;SDS011;29213;50.770;7.298;2022-12-28T15:03:46;5.43;;;1.58;;
43620;SDS011;29213;50.770;7.298;2022-12-28T15:06:13;3.05;;;1.23;;
43620;SDS011;29213;50.770;7.298;2022-12-28T15:08:39;3.67;;;1.33;;
43620;SDS011;29213;50.770;7.298;2022-12-28T15:11:04;3.08;;;1.10;;
43620;SDS011;29213;50.770;7.298;2022-12-28T15:13:30;3.97;;;1.30;;
43620;SDS011;29213;50.770;7.298;2022-12-28T15:15:56;2.67;;;1.30;;
43620;SDS011;29213;50.770;7.298;2022-12-28T15:18:23;2.63;;;1.20;;
43620;SDS011;29213;50.770;7.298;2022-12-28T15:20:49;4.72;;;1.33;;
43620;SDS011;29213;50.770;7.298;2022-12-28T15:23:15;4.50;;;1.30;;
43620;SDS011;29213;50.770;7.298;2022-12-28T15:25:40;4.55;;;1.85;;
43620;SDS011;29213;50.770;7.298;2022-12-28T15:28:06;2.85;;;1.30;;
43620;SDS011;29213;50.770;7.298;2022-12-28T15:30:31;2.72;;;1.20;;
43620;SDS011;29213;50.770;7.298;2022-12-28T15:32:57;4.07;;;1.48;;
43620;SDS011;29213;50.770;7.298;2022-12-28T15:35:22;3.55;;;1.30;;
43620;SDS011;29213;50.770;7.298;2022-12-28T15:37:48;3.75;;;1.25;;
43620;SDS011;29213;50.770;7.298;2022-12-28T15:40:14;2.42;;;1.13;;
43620;SDS011;29213;50.770;7.298;2022-12-28T15:42:42;2.90;;;1.40;;
43620;SDS011;29213;50.770;7.298;2022-12-28T15:45:09;2.38;;;1.02;;
43620;SDS011;29213;50.770;7.298;2022-12-28T15:47:34;4.13;;;1.23;;
43620;SDS011;29213;50.770;7.298;2022-12-28T15:50:00;2.95;;;1.40;;
43620;SDS011;29213;50.770;7.298;2022-12-28T15:52:27;4.05;;;1.65;;
43620;SDS011;29213;50.770;7.298;2022-12-28T15:54:54;2.72;;;1.33;;
43620;SDS011;29213;50.770;7.298;2022-12-28T15:57:20;2.97;;;1.20;;
43620;SDS011;29213;50.770;7.298;2022-12-28T15:59:45;2.72;;;1.17;;
43620;SDS011;29213;50.770;7.298;2022-12-28T16:04:41;3.30;;;1.70;;
43620;SDS011;29213;50.770;7.298;2022-12-28T16:07:17;4.95;;;1.70;;
43620;SDS011;29213;50.770;7.298;2022-12-28T16:09:48;2.08;;;1.00;;
43620;SDS011;29213;50.770;7.298;2022-12-28T16:12:18;3.88;;;1.42;;
43620;SDS011;29213;50.770;7.298;2022-12-28T16:14:58;2.80;;;1.17;;
43620;SDS011;29213;50.770;7.298;2022-12-28T16:17:29;3.60;;;1.75;;
43620;SDS011;29213;50.770;7.298;2022-12-28T16:20:00;3.90;;;1.60;;
43620;SDS011;29213;50.770;7.298;2022-12-28T16:22:26;3.70;;;1.50;;
43620;SDS011;29213;50.770;7.298;2022-12-28T16:27:23;3.83;;;1.20;;
43620;SDS011;29213;50.770;7.298;2022-12-28T16:29:53;3.22;;;1.30;;
43620;SDS011;29213;50.770;7.298;2022-12-28T16:32:25;2.63;;;1.40;;
43620;SDS011;29213;50.770;7.298;2022-12-28T16:34:58;3.08;;;1.10;;
43620;SDS011;29213;50.770;7.298;2022-12-28T16:37:30;3.25;;;1.70;;
43620;SDS011;29213;50.770;7.298;2022-12-28T16:40:01;3.63;;;1.50;;
43620;SDS011;29213;50.770;7.298;2022-12-28T16:42:34;3.38;;;1.40;;
43620;SDS011;29213;50.770;7.298;2022-12-28T16:45:06;2.85;;;1.20;;
43620;SDS011;29213;50.770;7.298;2022-12-28T16:47:37;3.47;;;1.48;;
43620;SDS011;29213;50.770;7.298;2022-12-28T16:52:39;2.83;;;1.20;;
43620;SDS011;29213;50.770;7.298;2022-12-28T16:55:12;2.60;;;1.20;;
43620;SDS011;29213;50.770;7.298;2022-12-28T16:57:38;3.70;;;1.35;;
43620;SDS011;29213;50.770;7.298;2022-12-28T17:00:04;2.30;;;1.10;;
43620;SDS011;29213;50.770;7.298;2022-12-28T17:02:29;3.30;;;1.40;;